createdAt,value
2023-04-15T00:00:56.146Z,6.00
2023-04-15T00:03:22.932Z,6.01
2023-04-15T00:05:49.558Z,5.99
2023-04-15T00:08:15.966Z,6.01
2023-04-15T00:10:44.233Z,6.02
2023-04-15T00:13:10.982Z,6.03
2023-04-15T00:15:37.673Z,6.06
2023-04-15T00:18:04.548Z,6.02
2023-04-15T00:20:31.349Z,6.05
2023-04-15T00:22:58.722Z,6.02
2023-04-15T00:25:25.074Z,6.06
2023-04-15T00:27:51.436Z,6.02
2023-04-15T00:30:17.841Z,6.02
2023-04-15T00:32:44.641Z,6.00
2023-04-15T00:35:12.183Z,6.04
2023-04-15T00:37:38.645Z,6.01
2023-04-15T00:40:07.959Z,6.00
2023-04-15T00:42:35.318Z,6.02
2023-04-15T00:45:01.806Z,6.01
2023-04-15T00:47:29.870Z,6.00
2023-04-15T00:49:56.600Z,6.00
2023-04-15T00:52:23.106Z,6.00
2023-04-15T00:54:51.284Z,6.01
2023-04-15T00:57:17.647Z,6.02
2023-04-15T00:59:44.059Z,6.02
2023-04-15T01:02:10.598Z,5.99
2023-04-15T01:04:37.626Z,5.99
2023-04-15T01:07:04.268Z,5.98
2023-04-15T01:09:30.730Z,6.04
2023-04-15T01:11:57.112Z,6.06
2023-04-15T01:14:23.739Z,6.00
2023-04-15T01:16:50.139Z,6.01
2023-04-15T01:19:17.972Z,6.01
2023-04-15T01:21:45.113Z,5.99
2023-04-15T01:24:11.753Z,5.99
2023-04-15T01:26:39.254Z,6.04
2023-04-15T01:29:06.997Z,6.00
2023-04-15T01:31:33.364Z,6.04
2023-04-15T01:34:01.338Z,6.02
2023-04-15T01:36:28.181Z,6.04
2023-04-15T01:38:55.848Z,6.03
2023-04-15T01:41:26.692Z,6.00
2023-04-15T01:43:53.489Z,6.02
2023-04-15T01:46:20.038Z,6.01
2023-04-15T01:48:46.638Z,6.00
2023-04-15T01:51:13.106Z,6.00
2023-04-15T01:53:39.476Z,5.99
2023-04-15T01:56:07.184Z,5.98
2023-04-15T01:58:33.747Z,6.00
2023-04-15T02:01:00.177Z,6.01
2023-04-15T02:03:26.719Z,6.02
2023-04-15T02:05:53.135Z,6.02
2023-04-15T02:08:19.494Z,6.02
2023-04-15T02:10:45.999Z,6.02
2023-04-15T02:13:12.446Z,6.01
2023-04-15T02:15:38.887Z,6.04
2023-04-15T02:18:05.262Z,6.02
2023-04-15T02:20:32.044Z,6.08
2023-04-15T02:22:58.419Z,6.02
2023-04-15T02:25:24.801Z,6.03
2023-04-15T02:27:51.559Z,6.03
2023-04-15T02:30:18.125Z,6.02
2023-04-15T02:32:45.042Z,6.09
2023-04-15T02:35:11.944Z,6.02
2023-04-15T02:37:43.469Z,6.01
2023-04-15T02:40:13.617Z,6.04
2023-04-15T02:42:41.019Z,6.02
2023-04-15T02:45:08.019Z,6.06
2023-04-15T02:47:35.985Z,6.04
2023-04-15T02:50:03.947Z,6.04
2023-04-15T02:52:30.530Z,6.02
2023-04-15T02:55:00.580Z,6.02
2023-04-15T02:57:29.001Z,6.03
2023-04-15T02:59:55.440Z,6.01
2023-04-15T03:02:21.978Z,6.03
2023-04-15T03:04:48.837Z,6.04
2023-04-15T03:07:15.325Z,6.02
2023-04-15T03:09:41.974Z,6.02
2023-04-15T03:12:08.306Z,6.02
2023-04-15T03:14:34.799Z,6.03
2023-04-15T03:17:01.330Z,6.02
2023-04-15T03:19:28.076Z,6.01
2023-04-15T03:21:54.398Z,6.05
2023-04-15T03:24:21.059Z,6.08
2023-04-15T03:26:47.466Z,6.05
2023-04-15T03:29:13.910Z,6.02
2023-04-15T03:31:40.465Z,6.02
2023-04-15T03:34:06.881Z,6.05
2023-04-15T03:36:33.521Z,6.04
2023-04-15T03:39:02.166Z,6.03
2023-04-15T03:41:28.907Z,6.06
2023-04-15T03:43:55.590Z,6.03
2023-04-15T03:46:22.033Z,6.06
2023-04-15T03:48:48.748Z,6.02
2023-04-15T03:51:15.081Z,6.09
2023-04-15T03:53:41.729Z,6.08
2023-04-15T03:56:08.095Z,6.05
2023-04-15T03:58:34.436Z,6.08
2023-04-15T04:01:01.043Z,6.07
2023-04-15T04:03:27.623Z,6.06
2023-04-15T04:05:54.278Z,6.08
2023-04-15T04:08:21.686Z,6.07
2023-04-15T04:10:48.088Z,6.09
2023-04-15T04:13:14.453Z,6.05
2023-04-15T04:15:41.276Z,6.07
2023-04-15T04:18:07.665Z,6.07
2023-04-15T04:20:34.213Z,6.09
2023-04-15T04:23:00.652Z,6.07
2023-04-15T04:25:27.234Z,6.07
2023-04-15T04:27:53.931Z,6.15
2023-04-15T04:30:20.369Z,6.11
2023-04-15T04:32:47.128Z,6.15
2023-04-15T04:35:13.569Z,6.15
2023-04-15T04:37:39.964Z,6.13
2023-04-15T04:40:08.038Z,6.13
2023-04-15T04:42:34.411Z,6.23
2023-04-15T04:45:01.069Z,6.14
2023-04-15T04:47:27.493Z,6.14
2023-04-15T04:49:53.928Z,6.16
2023-04-15T04:52:20.298Z,6.14
2023-04-15T04:54:47.274Z,6.19
2023-04-15T04:57:13.754Z,6.16
2023-04-15T04:59:40.612Z,6.14
2023-04-15T05:02:07.308Z,6.15
2023-04-15T05:04:34.404Z,6.21
2023-04-15T05:07:00.781Z,6.20
2023-04-15T05:09:27.528Z,6.24
2023-04-15T05:11:54.194Z,6.30
2023-04-15T05:14:21.165Z,6.23
2023-04-15T05:16:49.385Z,6.27
2023-04-15T05:19:16.014Z,6.22
2023-04-15T05:21:42.892Z,6.24
2023-04-15T05:24:09.323Z,6.24
2023-04-15T05:26:35.973Z,6.25
2023-04-15T05:29:02.719Z,6.25
2023-04-15T05:31:29.345Z,6.25
2023-04-15T05:33:55.751Z,6.30
2023-04-15T05:36:22.215Z,6.33
2023-04-15T05:38:48.558Z,6.41
2023-04-15T05:41:17.731Z,6.40
2023-04-15T05:43:45.686Z,6.37
2023-04-15T05:46:12.048Z,6.33
2023-04-15T05:48:38.418Z,6.36
2023-04-15T05:51:04.969Z,6.37
2023-04-15T05:53:31.997Z,6.37
2023-04-15T05:55:58.677Z,6.34
2023-04-15T05:58:25.105Z,6.38
2023-04-15T06:00:52.026Z,6.33
2023-04-15T06:03:18.749Z,6.36
2023-04-15T06:05:45.522Z,6.37
2023-04-15T06:08:12.459Z,6.35
2023-04-15T06:10:38.858Z,6.47
2023-04-15T06:13:05.851Z,6.38
2023-04-15T06:15:32.321Z,6.40
2023-04-15T06:17:59.247Z,6.38
2023-04-15T06:20:26.160Z,6.40
2023-04-15T06:22:52.548Z,6.37
2023-04-15T06:25:19.148Z,6.43
2023-04-15T06:27:45.630Z,6.42
2023-04-15T06:30:12.419Z,6.44
2023-04-15T06:32:38.960Z,6.44
2023-04-15T06:35:05.642Z,6.50
2023-04-15T06:37:32.756Z,6.52
2023-04-15T06:39:59.150Z,6.58
2023-04-15T06:42:25.677Z,6.54
2023-04-15T06:44:52.149Z,6.54
2023-04-15T06:47:19.751Z,6.58
2023-04-15T06:49:46.264Z,6.53
2023-04-15T06:52:13.017Z,6.54
2023-04-15T06:54:39.422Z,6.62
2023-04-15T06:57:07.087Z,6.58
2023-04-15T06:59:33.469Z,6.64
2023-04-15T07:02:00.188Z,6.68
2023-04-15T07:04:26.658Z,6.71
2023-04-15T07:06:54.370Z,6.68
2023-04-15T07:09:22.050Z,6.67
2023-04-15T07:11:49.484Z,6.70
2023-04-15T07:14:15.939Z,6.79
2023-04-15T07:16:42.650Z,6.92
2023-04-15T07:19:09.357Z,6.86
2023-04-15T07:21:35.847Z,6.82
2023-04-15T07:24:02.264Z,6.83
2023-04-15T07:26:28.600Z,6.83
2023-04-15T07:28:54.998Z,6.84
2023-04-15T07:31:22.052Z,6.88
2023-04-15T07:33:48.491Z,6.90
2023-04-15T07:36:15.375Z,6.88
2023-04-15T07:38:41.898Z,6.98
2023-04-15T07:41:08.392Z,6.97
2023-04-15T07:43:34.745Z,7.07
2023-04-15T07:46:01.340Z,7.02
2023-04-15T07:48:27.850Z,7.08
2023-04-15T07:50:54.255Z,7.09
2023-04-15T07:53:20.621Z,7.27
2023-04-15T07:55:47.336Z,7.26
2023-04-15T07:58:13.988Z,7.28
2023-04-15T08:00:40.842Z,7.33
2023-04-15T08:03:07.752Z,7.37
2023-04-15T08:05:34.520Z,7.44
2023-04-15T08:08:01.359Z,7.59
2023-04-15T08:10:29.930Z,7.83
2023-04-15T08:12:56.465Z,7.90
2023-04-15T08:15:23.420Z,8.03
2023-04-15T08:17:49.834Z,8.03
2023-04-15T08:20:16.329Z,8.08
2023-04-15T08:22:43.028Z,8.13
2023-04-15T08:25:10.265Z,8.17
2023-04-15T08:27:36.826Z,8.13
2023-04-15T08:30:05.085Z,8.33
2023-04-15T08:32:32.041Z,8.36
2023-04-15T08:34:58.435Z,8.35
2023-04-15T08:37:24.776Z,8.33
2023-04-15T08:39:51.142Z,8.36
2023-04-15T08:42:23.375Z,8.37
2023-04-15T08:44:51.033Z,8.53
2023-04-15T08:47:21.582Z,8.47
2023-04-15T08:49:53.721Z,8.69
2023-04-15T08:52:20.803Z,8.52
2023-04-15T08:54:48.007Z,8.58
2023-04-15T08:57:14.959Z,8.69
2023-04-15T08:59:42.785Z,8.55
2023-04-15T09:02:09.306Z,8.66
2023-04-15T09:04:35.725Z,8.61
2023-04-15T09:07:02.206Z,8.57
2023-04-15T09:09:29.229Z,8.60
2023-04-15T09:11:55.989Z,8.55
2023-04-15T09:14:22.811Z,8.51
2023-04-15T09:17:04.273Z,8.49
2023-04-15T09:19:33.464Z,8.49
2023-04-15T09:22:00.367Z,8.50
2023-04-15T09:24:37.390Z,8.49
2023-04-15T09:27:04.108Z,8.42
2023-04-15T09:29:30.545Z,8.34
2023-04-15T09:31:56.898Z,8.31
2023-04-15T09:34:36.220Z,8.35
2023-04-15T09:37:03.183Z,8.26
2023-04-15T09:39:49.785Z,8.18
2023-04-15T09:42:17.592Z,8.12
2023-04-15T09:44:44.354Z,8.19
2023-04-15T09:47:27.772Z,8.13
2023-04-15T09:49:58.301Z,8.05
2023-04-15T09:52:24.833Z,8.08
2023-04-15T09:54:53.803Z,8.05
2023-04-15T09:57:20.231Z,8.04
2023-04-15T09:59:46.595Z,8.08
2023-04-15T10:02:13.958Z,8.10
2023-04-15T10:04:41.571Z,8.14
2023-04-15T10:07:12.280Z,8.14
2023-04-15T10:09:39.501Z,8.17
2023-04-15T10:12:06.117Z,8.15
2023-04-15T10:14:35.641Z,8.18
2023-04-15T10:17:03.279Z,8.12
2023-04-15T10:19:33.140Z,8.12
2023-04-15T10:22:00.209Z,8.11
2023-04-15T10:24:27.836Z,8.11
2023-04-15T10:26:55.356Z,8.19
2023-04-15T10:29:23.268Z,8.19
2023-04-15T10:31:50.149Z,8.12
2023-04-15T10:34:18.389Z,8.15
2023-04-15T10:36:47.260Z,8.16
2023-04-15T10:39:43.547Z,8.16
2023-04-15T10:42:12.524Z,8.14
2023-04-15T10:44:41.837Z,8.14
2023-04-15T10:47:20.092Z,8.17
2023-04-15T10:49:49.874Z,8.21
2023-04-15T10:52:18.343Z,8.26
2023-04-15T10:54:45.100Z,8.24
2023-04-15T10:57:21.211Z,8.32
2023-04-15T11:00:00.835Z,8.40
2023-04-15T11:02:39.925Z,8.47
2023-04-15T11:05:07.422Z,8.47
2023-04-15T11:07:34.674Z,8.52
2023-04-15T11:10:01.771Z,8.53
2023-04-15T11:12:36.377Z,8.53
2023-04-15T11:15:34.907Z,8.50
2023-04-15T11:18:22.245Z,8.49
2023-04-15T11:20:54.862Z,8.52
2023-04-15T11:23:33.552Z,8.49
2023-04-15T11:26:01.726Z,8.45
2023-04-15T11:28:29.917Z,8.47
2023-04-15T11:30:57.136Z,8.47
2023-04-15T11:33:24.197Z,8.51
2023-04-15T11:35:53.484Z,8.54
2023-04-15T11:38:19.857Z,8.50
2023-04-15T11:40:47.346Z,8.59
2023-04-15T11:43:21.796Z,8.58
2023-04-15T11:45:54.226Z,8.68
2023-04-15T11:48:24.445Z,8.73
2023-04-15T11:50:59.456Z,8.73
2023-04-15T11:53:36.235Z,8.81
2023-04-15T11:56:02.791Z,8.86
2023-04-15T11:58:29.822Z,8.82
2023-04-15T12:01:00.191Z,8.85
2023-04-15T12:03:32.164Z,8.82
2023-04-15T12:06:14.125Z,8.84
2023-04-15T12:08:52.788Z,8.81
2023-04-15T12:11:21.430Z,8.81
2023-04-15T12:13:49.503Z,8.80
2023-04-15T12:16:19.841Z,8.76
2023-04-15T12:18:47.295Z,8.79
2023-04-15T12:21:14.443Z,8.73
2023-04-15T12:23:52.009Z,8.77
2023-04-15T12:26:26.022Z,8.69
2023-04-15T12:29:06.809Z,8.72
2023-04-15T12:31:33.927Z,8.84
2023-04-15T12:34:01.137Z,8.86
2023-04-15T12:36:28.674Z,8.89
2023-04-15T12:38:55.078Z,8.91
2023-04-15T12:41:22.298Z,8.88
2023-04-15T12:43:48.645Z,8.86
2023-04-15T12:46:15.730Z,8.88
2023-04-15T12:48:42.458Z,8.86
2023-04-15T12:51:08.896Z,8.96
2023-04-15T12:53:35.577Z,8.89
2023-04-15T12:56:02.052Z,8.91
2023-04-15T12:58:28.867Z,8.89
2023-04-15T13:00:55.319Z,8.90
2023-04-15T13:03:21.812Z,8.99
2023-04-15T13:05:48.257Z,8.99
2023-04-15T13:08:14.693Z,9.05
2023-04-15T13:10:42.417Z,8.97
2023-04-15T13:13:08.991Z,9.13
2023-04-15T13:15:35.468Z,8.94
2023-04-15T13:18:01.871Z,8.94
2023-04-15T13:20:28.277Z,8.94
2023-04-15T13:22:54.623Z,8.93
2023-04-15T13:25:21.069Z,8.96
2023-04-15T13:27:48.088Z,8.98
2023-04-15T13:30:14.488Z,9.10
2023-04-15T13:32:40.900Z,9.13
2023-04-15T13:35:07.581Z,9.06
2023-04-15T13:37:34.078Z,9.11
2023-04-15T13:40:00.659Z,9.11
2023-04-15T13:42:27.842Z,9.16
2023-04-15T13:44:54.439Z,9.26
2023-04-15T13:47:21.494Z,9.23
2023-04-15T13:49:47.963Z,9.29
2023-04-15T13:52:14.528Z,9.35
2023-04-15T13:54:40.944Z,9.40
2023-04-15T13:57:07.408Z,9.43
2023-04-15T13:59:34.955Z,9.41
2023-04-15T14:02:01.716Z,9.42
2023-04-15T14:04:28.349Z,9.48
2023-04-15T14:06:54.830Z,9.46
2023-04-15T14:09:26.194Z,9.43
2023-04-15T14:11:53.207Z,9.44
2023-04-15T14:14:19.877Z,9.46
2023-04-15T14:16:46.675Z,9.52
2023-04-15T14:19:13.079Z,9.48
2023-04-15T14:21:39.446Z,9.68
2023-04-15T14:24:06.059Z,9.57
2023-04-15T14:26:32.704Z,9.59
2023-04-15T14:28:59.061Z,9.64
2023-04-15T14:31:25.455Z,9.77
2023-04-15T14:33:51.874Z,9.65
2023-04-15T14:36:18.254Z,9.65
2023-04-15T14:38:47.512Z,9.71
2023-04-15T14:41:14.958Z,9.71
2023-04-15T14:43:48.109Z,9.75
2023-04-15T14:46:14.692Z,9.70
2023-04-15T14:48:41.279Z,9.65
2023-04-15T14:51:07.989Z,9.71
2023-04-15T14:53:34.674Z,9.72
2023-04-15T14:56:01.179Z,9.82
2023-04-15T14:58:27.595Z,9.88
2023-04-15T15:00:54.115Z,9.92
2023-04-15T15:03:20.615Z,9.98
2023-04-15T15:05:47.509Z,9.96
2023-04-15T15:08:14.396Z,10.09
2023-04-15T15:10:49.322Z,10.01
2023-04-15T15:13:17.000Z,10.09
2023-04-15T15:15:43.545Z,10.09
2023-04-15T15:18:10.761Z,10.24
2023-04-15T15:20:37.193Z,10.30
2023-04-15T15:23:03.563Z,10.38
2023-04-15T15:25:29.945Z,10.29
2023-04-15T15:27:57.379Z,10.30
2023-04-15T15:30:23.979Z,10.13
2023-04-15T15:32:50.766Z,10.13
2023-04-15T15:35:17.294Z,10.13
2023-04-15T15:37:45.633Z,10.22
2023-04-15T15:40:12.415Z,10.27
2023-04-15T15:42:38.893Z,10.20
2023-04-15T15:45:05.625Z,10.24
2023-04-15T15:47:32.145Z,10.19
2023-04-15T15:49:59.788Z,10.13
2023-04-15T15:52:26.265Z,9.99
2023-04-15T15:54:52.606Z,9.92
2023-04-15T15:57:19.076Z,9.84
2023-04-15T15:59:46.277Z,9.84
2023-04-15T16:02:14.347Z,9.81
2023-04-15T16:04:41.588Z,9.73
2023-04-15T16:07:08.091Z,9.78
2023-04-15T16:09:34.561Z,9.78
2023-04-15T16:12:01.995Z,9.71
2023-04-15T16:14:28.449Z,9.62
2023-04-15T16:16:54.941Z,9.61
2023-04-15T16:19:21.662Z,9.56
2023-04-15T16:21:48.304Z,9.53
2023-04-15T16:24:14.778Z,9.57
2023-04-15T16:26:41.671Z,9.59
2023-04-15T16:29:08.115Z,9.69
2023-04-15T16:31:35.535Z,9.60
2023-04-15T16:34:02.626Z,9.57
2023-04-15T16:36:29.062Z,9.52
2023-04-15T16:38:55.945Z,9.59
2023-04-15T16:41:22.409Z,9.62
2023-04-15T16:43:49.206Z,9.69
2023-04-15T16:46:15.754Z,9.63
2023-04-15T16:48:42.308Z,9.54
2023-04-15T16:51:09.012Z,9.60
2023-04-15T16:53:35.702Z,9.53
2023-04-15T16:56:02.398Z,9.50
2023-04-15T16:58:28.823Z,9.45
2023-04-15T17:00:55.303Z,9.48
2023-04-15T17:03:21.946Z,9.46
2023-04-15T17:05:48.432Z,9.42
2023-04-15T17:08:14.773Z,9.48
2023-04-15T17:10:41.596Z,9.50
2023-04-15T17:13:08.050Z,9.41
2023-04-15T17:15:34.837Z,9.37
2023-04-15T17:18:01.966Z,9.30
2023-04-15T17:20:29.760Z,9.28
2023-04-15T17:22:56.280Z,9.24
2023-04-15T17:25:23.155Z,9.30
2023-04-15T17:27:49.809Z,9.28
2023-04-15T17:30:16.193Z,9.23
2023-04-15T17:32:42.788Z,9.20
2023-04-15T17:35:09.666Z,9.18
2023-04-15T17:37:36.113Z,9.20
2023-04-15T17:40:02.818Z,9.22
2023-04-15T17:42:29.169Z,9.21
2023-04-15T17:44:55.637Z,9.17
2023-04-15T17:47:22.103Z,9.30
2023-04-15T17:49:48.462Z,9.22
2023-04-15T17:52:14.934Z,9.19
2023-04-15T17:54:41.426Z,9.12
2023-04-15T17:57:07.880Z,9.05
2023-04-15T17:59:34.390Z,9.07
2023-04-15T18:02:00.921Z,9.03
2023-04-15T18:04:27.409Z,9.07
2023-04-15T18:06:54.190Z,9.01
2023-04-15T18:09:20.917Z,9.11
2023-04-15T18:11:48.367Z,9.16
2023-04-15T18:14:26.665Z,9.04
2023-04-15T18:16:59.815Z,9.01
2023-04-15T18:19:26.306Z,8.99
2023-04-15T18:21:52.832Z,8.92
2023-04-15T18:24:19.309Z,8.90
2023-04-15T18:26:48.311Z,8.83
2023-04-15T18:29:15.312Z,8.78
2023-04-15T18:31:42.054Z,8.77
2023-04-15T18:34:08.520Z,8.76
2023-04-15T18:36:34.855Z,8.74
2023-04-15T18:39:01.328Z,8.71
2023-04-15T18:41:27.786Z,8.74
2023-04-15T18:43:55.983Z,8.76
2023-04-15T18:46:22.457Z,8.74
2023-04-15T18:48:48.819Z,8.74
2023-04-15T18:51:15.408Z,8.80
2023-04-15T18:53:41.779Z,8.71
2023-04-15T18:56:08.209Z,8.64
2023-04-15T18:59:18.509Z,8.65
2023-04-15T19:01:21.394Z,8.62
2023-04-15T19:03:47.851Z,8.61
2023-04-15T19:06:14.238Z,8.71
2023-04-15T19:08:40.830Z,8.66
2023-04-15T19:11:07.242Z,8.73
2023-04-15T19:13:33.589Z,8.75
2023-04-15T19:16:00.046Z,8.72
2023-04-15T19:18:27.008Z,8.70
2023-04-15T19:20:55.770Z,8.65
2023-04-15T19:23:23.233Z,8.57
2023-04-15T19:25:49.665Z,8.57
2023-04-15T19:28:16.023Z,8.61
2023-04-15T19:30:43.086Z,8.46
2023-04-15T19:33:09.477Z,8.43
2023-04-15T19:35:36.171Z,8.39
2023-04-15T19:38:03.215Z,8.38
2023-04-15T19:40:30.054Z,8.45
2023-04-15T19:42:56.430Z,8.40
2023-04-15T19:45:22.824Z,8.36
2023-04-15T19:47:49.295Z,8.33
2023-04-15T19:50:16.573Z,8.29
2023-04-15T19:52:43.268Z,8.27
2023-04-15T19:55:09.752Z,8.27
2023-04-15T19:57:36.457Z,8.26
2023-04-15T20:00:03.098Z,8.27
2023-04-15T20:02:29.578Z,8.24
2023-04-15T20:04:56.441Z,8.25
2023-04-15T20:07:22.812Z,8.25
2023-04-15T20:09:49.992Z,8.23
2023-04-15T20:12:51.626Z,8.23
2023-04-15T20:15:02.885Z,8.25
2023-04-15T20:17:32.927Z,8.20
2023-04-15T20:19:59.897Z,8.18
2023-04-15T20:22:26.657Z,8.14
2023-04-15T20:24:53.127Z,8.11
2023-04-15T20:27:20.946Z,8.14
2023-04-15T20:29:47.964Z,8.12
2023-04-15T20:32:14.473Z,8.09
2023-04-15T20:34:41.110Z,8.10
2023-04-15T20:37:07.749Z,8.05
2023-04-15T20:39:34.685Z,8.03
2023-04-15T20:42:01.577Z,8.01
2023-04-15T20:44:28.414Z,7.97
2023-04-15T20:46:54.917Z,7.96
2023-04-15T20:49:21.360Z,7.92
2023-04-15T20:51:48.986Z,7.90
2023-04-15T20:54:15.567Z,7.91
2023-04-15T20:56:41.899Z,7.91
2023-04-15T20:59:08.263Z,7.90
2023-04-15T21:01:34.655Z,7.91
2023-04-15T21:04:01.138Z,7.89
2023-04-15T21:06:27.638Z,7.86
2023-04-15T21:08:54.012Z,7.88
2023-04-15T21:11:38.862Z,7.86
2023-04-15T21:14:08.075Z,7.82
2023-04-15T21:16:34.642Z,7.81
2023-04-15T21:19:01.242Z,7.78
2023-04-15T21:21:28.078Z,7.79
2023-04-15T21:23:54.773Z,7.77
2023-04-15T21:26:21.233Z,7.77
2023-04-15T21:28:47.607Z,7.77
2023-04-15T21:31:14.298Z,7.80
2023-04-15T21:33:40.785Z,7.81
2023-04-15T21:36:07.452Z,7.83
2023-04-15T21:38:33.981Z,7.78
2023-04-15T21:41:01.240Z,7.77
2023-04-15T21:43:27.869Z,7.78
2023-04-15T21:46:23.388Z,7.67
2023-04-15T21:48:40.916Z,7.68
2023-04-15T21:51:07.718Z,7.65
2023-04-15T21:53:34.083Z,7.62
2023-04-15T21:56:00.624Z,7.62
2023-04-15T21:58:26.991Z,7.58
2023-04-15T22:00:57.470Z,7.58
2023-04-15T22:03:24.421Z,7.57
2023-04-15T22:05:51.066Z,7.51
2023-04-15T22:08:17.420Z,7.51
2023-04-15T22:10:44.092Z,7.49
2023-04-15T22:13:11.010Z,7.51
2023-04-15T22:15:37.770Z,7.53
2023-04-15T22:18:05.134Z,7.52
2023-04-15T22:20:31.620Z,7.53
2023-04-15T22:22:58.115Z,7.46
2023-04-15T22:25:24.528Z,7.46
2023-04-15T22:27:50.888Z,7.46
2023-04-15T22:30:17.256Z,7.45
2023-04-15T22:32:43.684Z,7.42
2023-04-15T22:35:10.062Z,7.41
2023-04-15T22:37:36.783Z,7.44
2023-04-15T22:40:03.567Z,7.45
2023-04-15T22:42:30.073Z,7.46
2023-04-15T22:44:56.523Z,7.47
2023-04-15T22:47:22.898Z,7.45
2023-04-15T22:49:49.577Z,7.50
2023-04-15T22:52:29.483Z,7.46
2023-04-15T22:54:56.759Z,7.46
2023-04-15T22:57:23.124Z,7.47
2023-04-15T22:59:49.801Z,7.47
2023-04-15T23:02:16.393Z,7.46
2023-04-15T23:04:42.957Z,7.48
2023-04-15T23:07:09.357Z,7.46
2023-04-15T23:09:35.917Z,7.45
2023-04-15T23:12:02.809Z,7.45
2023-04-15T23:14:29.991Z,7.51
2023-04-15T23:16:57.751Z,7.56
2023-04-15T23:19:24.828Z,7.55
2023-04-15T23:21:51.509Z,7.63
2023-04-15T23:24:18.012Z,7.55
2023-04-15T23:26:44.360Z,7.58
2023-04-15T23:29:10.821Z,7.52
2023-04-15T23:31:37.434Z,7.47
2023-04-15T23:34:04.124Z,7.46
2023-04-15T23:36:31.723Z,7.44
2023-04-15T23:38:58.115Z,7.42
2023-04-15T23:41:24.748Z,7.43
2023-04-15T23:43:51.725Z,7.40
2023-04-15T23:46:18.169Z,7.47
2023-04-15T23:48:44.518Z,7.41
2023-04-15T23:51:11.030Z,7.41
2023-04-15T23:53:37.386Z,7.52
2023-04-15T23:56:04.070Z,7.42
2023-04-15T23:58:31.024Z,7.46
